sensor_id;sensor_type;location;lat;lon;timestamp;P1;durP1;ratioP1;P2;durP2;ratioP2
33862;SDS011;20158;51.436;-2.742;2022-07-29T00:00:58;2.45;;;1.50;;
33862;SDS011;20158;51.436;-2.742;2022-07-29T00:03:24;2.20;;;1.60;;
33862;SDS011;20158;51.436;-2.742;2022-07-29T00:05:50;2.58;;;1.60;;
33862;SDS011;20158;51.436;-2.742;2022-07-29T00:08:19;1.58;;;1.45;;
33862;SDS011;20158;51.436;-2.742;2022-07-29T00:10:45;2.20;;;1.80;;
33862;SDS011;20158;51.436;-2.742;2022-07-29T00:13:11;4.88;;;1.67;;
33862;SDS011;20158;51.436;-2.742;2022-07-29T00:15:37;1.98;;;1.67;;
33862;SDS011;20158;51.436;-2.742;2022-07-29T00:18:03;3.92;;;2.13;;
33862;SDS011;20158;51.436;-2.742;2022-07-29T00:20:29;3.28;;;1.90;;
33862;SDS011;20158;51.436;-2.742;2022-07-29T00:22:55;5.22;;;2.40;;
33862;SDS011;20158;51.436;-2.742;2022-07-29T00:25:22;2.75;;;1.58;;
33862;SDS011;20158;51.436;-2.742;2022-07-29T00:27:48;2.47;;;1.40;;
33862;SDS011;20158;51.436;-2.742;2022-07-29T00:30:14;4.22;;;2.08;;
33862;SDS011;20158;51.436;-2.742;2022-07-29T00:32:40;3.22;;;1.80;;
33862;SDS011;20158;51.436;-2.742;2022-07-29T00:35:06;3.25;;;2.28;;
33862;SDS011;20158;51.436;-2.742;2022-07-29T00:37:51;4.13;;;2.30;;
33862;SDS011;20158;51.436;-2.742;2022-07-29T00:40:17;2.58;;;2.10;;
33862;SDS011;20158;51.436;-2.742;2022-07-29T00:42:47;3.75;;;2.08;;
33862;SDS011;20158;51.436;-2.742;2022-07-29T00:45:14;4.80;;;2.17;;
33862;SDS011;20158;51.436;-2.742;2022-07-29T00:47:41;2.35;;;1.73;;
33862;SDS011;20158;51.436;-2.742;2022-07-29T00:50:08;3.08;;;1.77;;
33862;SDS011;20158;51.436;-2.742;2022-07-29T00:52:36;2.65;;;1.80;;
33862;SDS011;20158;51.436;-2.742;2022-07-29T00:55:04;1.70;;;1.60;;
33862;SDS011;20158;51.436;-2.742;2022-07-29T00:57:32;3.35;;;1.58;;
33862;SDS011;20158;51.436;-2.742;2022-07-29T00:59:59;1.83;;;1.45;;
33862;SDS011;20158;51.436;-2.742;2022-07-29T01:02:24;3.15;;;1.75;;
33862;SDS011;20158;51.436;-2.742;2022-07-29T01:04:50;2.30;;;1.60;;
33862;SDS011;20158;51.436;-2.742;2022-07-29T01:07:17;3.05;;;2.08;;
33862;SDS011;20158;51.436;-2.742;2022-07-29T01:09:44;2.05;;;1.67;;
33862;SDS011;20158;51.436;-2.742;2022-07-29T01:12:11;2.83;;;1.77;;
33862;SDS011;20158;51.436;-2.742;2022-07-29T01:14:46;2.95;;;1.60;;
33862;SDS011;20158;51.436;-2.742;2022-07-29T01:17:17;2.10;;;1.65;;
33862;SDS011;20158;51.436;-2.742;2022-07-29T01:22:31;2.22;;;2.05;;
33862;SDS011;20158;51.436;-2.742;2022-07-29T01:28:06;3.85;;;1.98;;
33862;SDS011;20158;51.436;-2.742;2022-07-29T01:30:35;2.05;;;1.85;;
33862;SDS011;20158;51.436;-2.742;2022-07-29T01:33:05;2.88;;;1.85;;
33862;SDS011;20158;51.436;-2.742;2022-07-29T01:35:36;1.80;;;1.70;;
33862;SDS011;20158;51.436;-2.742;2022-07-29T01:38:07;2.42;;;1.70;;
33862;SDS011;20158;51.436;-2.742;2022-07-29T01:46:13;2.03;;;1.50;;
33862;SDS011;20158;51.436;-2.742;2022-07-29T01:48:45;2.80;;;1.80;;
33862;SDS011;20158;51.436;-2.742;2022-07-29T01:53:57;2.30;;;1.77;;
33862;SDS011;20158;51.436;-2.742;2022-07-29T01:59:07;2.47;;;1.98;;
33862;SDS011;20158;51.436;-2.742;2022-07-29T02:01:34;2.47;;;1.85;;
33862;SDS011;20158;51.436;-2.742;2022-07-29T02:04:03;2.67;;;1.85;;
33862;SDS011;20158;51.436;-2.742;2022-07-29T02:06:32;2.67;;;1.88;;
33862;SDS011;20158;51.436;-2.742;2022-07-29T02:09:00;1.70;;;1.48;;
33862;SDS011;20158;51.436;-2.742;2022-07-29T02:11:27;2.10;;;1.83;;
33862;SDS011;20158;51.436;-2.742;2022-07-29T02:13:56;2.20;;;1.80;;
33862;SDS011;20158;51.436;-2.742;2022-07-29T02:16:24;2.63;;;1.88;;
33862;SDS011;20158;51.436;-2.742;2022-07-29T02:18:53;3.42;;;1.88;;
33862;SDS011;20158;51.436;-2.742;2022-07-29T02:21:23;2.63;;;1.65;;
33862;SDS011;20158;51.436;-2.742;2022-07-29T02:23:51;2.53;;;2.33;;
33862;SDS011;20158;51.436;-2.742;2022-07-29T02:26:22;4.65;;;2.50;;
33862;SDS011;20158;51.436;-2.742;2022-07-29T02:28:53;1.80;;;1.70;;
33862;SDS011;20158;51.436;-2.742;2022-07-29T02:31:23;3.53;;;2.43;;
33862;SDS011;20158;51.436;-2.742;2022-07-29T02:33:51;4.65;;;1.92;;
33862;SDS011;20158;51.436;-2.742;2022-07-29T02:36:21;1.80;;;1.70;;
33862;SDS011;20158;51.436;-2.742;2022-07-29T02:38:49;3.15;;;1.92;;
33862;SDS011;20158;51.436;-2.742;2022-07-29T02:41:20;3.03;;;1.58;;
33862;SDS011;20158;51.436;-2.742;2022-07-29T02:43:54;1.73;;;1.63;;
33862;SDS011;20158;51.436;-2.742;2022-07-29T02:46:32;1.77;;;1.30;;
33862;SDS011;20158;51.436;-2.742;2022-07-29T02:51:35;1.88;;;1.63;;
33862;SDS011;20158;51.436;-2.742;2022-07-29T02:54:08;3.08;;;2.30;;
33862;SDS011;20158;51.436;-2.742;2022-07-29T02:56:36;2.58;;;1.95;;
33862;SDS011;20158;51.436;-2.742;2022-07-29T02:59:06;2.75;;;2.22;;
33862;SDS011;20158;51.436;-2.742;2022-07-29T03:01:35;2.47;;;1.95;;
33862;SDS011;20158;51.436;-2.742;2022-07-29T03:04:07;3.70;;;1.88;;
33862;SDS011;20158;51.436;-2.742;2022-07-29T03:06:36;5.45;;;1.90;;
33862;SDS011;20158;51.436;-2.742;2022-07-29T03:09:04;3.42;;;1.67;;
33862;SDS011;20158;51.436;-2.742;2022-07-29T03:11:32;3.15;;;2.00;;
33862;SDS011;20158;51.436;-2.742;2022-07-29T03:13:59;3.15;;;2.00;;
33862;SDS011;20158;51.436;-2.742;2022-07-29T03:16:26;2.13;;;1.90;;
33862;SDS011;20158;51.436;-2.742;2022-07-29T03:18:52;2.70;;;2.13;;
33862;SDS011;20158;51.436;-2.742;2022-07-29T03:21:19;2.25;;;1.90;;
33862;SDS011;20158;51.436;-2.742;2022-07-29T03:23:45;2.10;;;1.90;;
33862;SDS011;20158;51.436;-2.742;2022-07-29T03:26:12;1.70;;;1.60;;
33862;SDS011;20158;51.436;-2.742;2022-07-29T03:28:38;3.28;;;1.90;;
33862;SDS011;20158;51.436;-2.742;2022-07-29T03:31:04;4.25;;;1.90;;
33862;SDS011;20158;51.436;-2.742;2022-07-29T03:33:30;1.85;;;1.70;;
33862;SDS011;20158;51.436;-2.742;2022-07-29T03:35:56;2.25;;;1.80;;
33862;SDS011;20158;51.436;-2.742;2022-07-29T03:38:24;2.30;;;2.10;;
33862;SDS011;20158;51.436;-2.742;2022-07-29T03:41:02;2.25;;;2.05;;
33862;SDS011;20158;51.436;-2.742;2022-07-29T03:43:34;5.88;;;2.15;;
33862;SDS011;20158;51.436;-2.742;2022-07-29T03:46:02;2.65;;;2.45;;
33862;SDS011;20158;51.436;-2.742;2022-07-29T03:48:32;2.58;;;2.00;;
33862;SDS011;20158;51.436;-2.742;2022-07-29T03:51:02;2.63;;;1.73;;
33862;SDS011;20158;51.436;-2.742;2022-07-29T03:53:28;1.85;;;1.73;;
33862;SDS011;20158;51.436;-2.742;2022-07-29T03:55:54;3.08;;;1.95;;
33862;SDS011;20158;51.436;-2.742;2022-07-29T03:58:25;2.75;;;2.30;;
33862;SDS011;20158;51.436;-2.742;2022-07-29T04:00:53;2.60;;;1.92;;
33862;SDS011;20158;51.436;-2.742;2022-07-29T04:03:20;2.63;;;2.30;;
33862;SDS011;20158;51.436;-2.742;2022-07-29T04:06:01;2.30;;;2.08;;
33862;SDS011;20158;51.436;-2.742;2022-07-29T04:08:30;3.55;;;2.17;;
33862;SDS011;20158;51.436;-2.742;2022-07-29T04:10:58;3.15;;;1.77;;
33862;SDS011;20158;51.436;-2.742;2022-07-29T04:13:24;2.38;;;1.90;;
33862;SDS011;20158;51.436;-2.742;2022-07-29T04:15:50;2.67;;;2.05;;
33862;SDS011;20158;51.436;-2.742;2022-07-29T04:18:16;2.55;;;2.17;;
33862;SDS011;20158;51.436;-2.742;2022-07-29T04:20:42;2.42;;;2.10;;
33862;SDS011;20158;51.436;-2.742;2022-07-29T04:23:08;3.90;;;2.70;;
33862;SDS011;20158;51.436;-2.742;2022-07-29T04:25:37;4.03;;;3.03;;
33862;SDS011;20158;51.436;-2.742;2022-07-29T04:28:05;3.08;;;2.20;;
33862;SDS011;20158;51.436;-2.742;2022-07-29T04:30:31;2.88;;;2.30;;
33862;SDS011;20158;51.436;-2.742;2022-07-29T04:32:59;3.15;;;2.00;;
33862;SDS011;20158;51.436;-2.742;2022-07-29T04:35:26;2.88;;;2.28;;
33862;SDS011;20158;51.436;-2.742;2022-07-29T04:37:52;4.28;;;2.58;;
33862;SDS011;20158;51.436;-2.742;2022-07-29T04:40:18;2.97;;;2.25;;
33862;SDS011;20158;51.436;-2.742;2022-07-29T04:42:44;3.20;;;2.70;;
33862;SDS011;20158;51.436;-2.742;2022-07-29T04:45:10;3.55;;;2.63;;
33862;SDS011;20158;51.436;-2.742;2022-07-29T04:47:36;2.95;;;2.38;;
33862;SDS011;20158;51.436;-2.742;2022-07-29T04:50:02;3.13;;;2.50;;
33862;SDS011;20158;51.436;-2.742;2022-07-29T04:52:28;2.97;;;2.30;;
33862;SDS011;20158;51.436;-2.742;2022-07-29T04:54:54;4.75;;;2.92;;
33862;SDS011;20158;51.436;-2.742;2022-07-29T04:57:20;2.63;;;2.33;;
33862;SDS011;20158;51.436;-2.742;2022-07-29T04:59:46;2.45;;;2.20;;
33862;SDS011;20158;51.436;-2.742;2022-07-29T05:02:12;3.75;;;2.80;;
33862;SDS011;20158;51.436;-2.742;2022-07-29T05:04:37;2.95;;;2.50;;
33862;SDS011;20158;51.436;-2.742;2022-07-29T05:07:03;2.85;;;2.65;;
33862;SDS011;20158;51.436;-2.742;2022-07-29T05:09:29;3.10;;;2.40;;
33862;SDS011;20158;51.436;-2.742;2022-07-29T05:11:57;3.47;;;2.50;;
33862;SDS011;20158;51.436;-2.742;2022-07-29T05:14:23;3.47;;;2.63;;
33862;SDS011;20158;51.436;-2.742;2022-07-29T05:16:49;2.67;;;2.47;;
33862;SDS011;20158;51.436;-2.742;2022-07-29T05:19:16;2.67;;;2.47;;
33862;SDS011;20158;51.436;-2.742;2022-07-29T05:21:44;4.47;;;2.50;;
33862;SDS011;20158;51.436;-2.742;2022-07-29T05:24:10;3.92;;;2.33;;
33862;SDS011;20158;51.436;-2.742;2022-07-29T05:26:35;3.65;;;3.00;;
33862;SDS011;20158;51.436;-2.742;2022-07-29T05:29:01;2.95;;;2.70;;
33862;SDS011;20158;51.436;-2.742;2022-07-29T05:31:27;3.13;;;2.83;;
33862;SDS011;20158;51.436;-2.742;2022-07-29T05:33:53;5.30;;;2.53;;
33862;SDS011;20158;51.436;-2.742;2022-07-29T05:36:19;3.65;;;2.58;;
33862;SDS011;20158;51.436;-2.742;2022-07-29T05:38:45;3.17;;;2.85;;
33862;SDS011;20158;51.436;-2.742;2022-07-29T05:41:11;3.63;;;2.60;;
33862;SDS011;20158;51.436;-2.742;2022-07-29T05:43:37;5.45;;;3.72;;
33862;SDS011;20158;51.436;-2.742;2022-07-29T05:46:03;3.20;;;2.90;;
33862;SDS011;20158;51.436;-2.742;2022-07-29T05:48:28;8.23;;;4.50;;
33862;SDS011;20158;51.436;-2.742;2022-07-29T05:50:54;5.45;;;4.18;;
33862;SDS011;20158;51.436;-2.742;2022-07-29T05:53:20;8.27;;;4.68;;
33862;SDS011;20158;51.436;-2.742;2022-07-29T05:55:47;4.43;;;4.03;;
33862;SDS011;20158;51.436;-2.742;2022-07-29T05:58:13;9.05;;;5.28;;
33862;SDS011;20158;51.436;-2.742;2022-07-29T06:00:39;4.72;;;4.20;;
33862;SDS011;20158;51.436;-2.742;2022-07-29T06:03:05;5.35;;;4.85;;
33862;SDS011;20158;51.436;-2.742;2022-07-29T06:05:31;10.60;;;4.90;;
33862;SDS011;20158;51.436;-2.742;2022-07-29T06:07:57;7.47;;;4.25;;
33862;SDS011;20158;51.436;-2.742;2022-07-29T06:10:23;9.35;;;4.55;;
33862;SDS011;20158;51.436;-2.742;2022-07-29T06:12:49;6.88;;;4.25;;
33862;SDS011;20158;51.436;-2.742;2022-07-29T06:15:15;6.72;;;4.20;;
33862;SDS011;20158;51.436;-2.742;2022-07-29T06:17:41;7.15;;;4.38;;
33862;SDS011;20158;51.436;-2.742;2022-07-29T06:20:08;7.50;;;3.90;;
33862;SDS011;20158;51.436;-2.742;2022-07-29T06:22:35;5.57;;;3.17;;
33862;SDS011;20158;51.436;-2.742;2022-07-29T06:25:01;5.05;;;3.97;;
33862;SDS011;20158;51.436;-2.742;2022-07-29T06:27:27;7.47;;;3.80;;
33862;SDS011;20158;51.436;-2.742;2022-07-29T06:29:53;7.18;;;4.30;;
33862;SDS011;20158;51.436;-2.742;2022-07-29T06:32:19;4.47;;;3.15;;
33862;SDS011;20158;51.436;-2.742;2022-07-29T06:34:45;5.22;;;3.67;;
33862;SDS011;20158;51.436;-2.742;2022-07-29T06:37:11;5.47;;;3.28;;
33862;SDS011;20158;51.436;-2.742;2022-07-29T06:39:36;4.57;;;3.40;;
33862;SDS011;20158;51.436;-2.742;2022-07-29T06:42:06;3.63;;;3.17;;
33862;SDS011;20158;51.436;-2.742;2022-07-29T06:44:32;9.10;;;2.80;;
33862;SDS011;20158;51.436;-2.742;2022-07-29T06:47:00;7.65;;;3.13;;
33862;SDS011;20158;51.436;-2.742;2022-07-29T06:49:26;11.55;;;3.70;;
33862;SDS011;20158;51.436;-2.742;2022-07-29T06:51:53;6.80;;;3.13;;
33862;SDS011;20158;51.436;-2.742;2022-07-29T06:54:19;6.35;;;2.63;;
33862;SDS011;20158;51.436;-2.742;2022-07-29T06:56:45;3.58;;;3.10;;
33862;SDS011;20158;51.436;-2.742;2022-07-29T06:59:11;5.70;;;2.70;;
33862;SDS011;20158;51.436;-2.742;2022-07-29T07:01:39;4.60;;;2.55;;
33862;SDS011;20158;51.436;-2.742;2022-07-29T07:04:06;7.75;;;2.08;;
33862;SDS011;20158;51.436;-2.742;2022-07-29T07:06:34;6.97;;;2.40;;
33862;SDS011;20158;51.436;-2.742;2022-07-29T07:09:00;5.20;;;2.00;;
33862;SDS011;20158;51.436;-2.742;2022-07-29T07:11:26;6.30;;;2.20;;
33862;SDS011;20158;51.436;-2.742;2022-07-29T07:13:52;4.93;;;2.00;;
33862;SDS011;20158;51.436;-2.742;2022-07-29T07:16:18;4.05;;;2.17;;
33862;SDS011;20158;51.436;-2.742;2022-07-29T07:18:44;2.35;;;1.92;;
33862;SDS011;20158;51.436;-2.742;2022-07-29T07:21:10;3.35;;;1.92;;
33862;SDS011;20158;51.436;-2.742;2022-07-29T07:23:37;3.45;;;1.83;;
33862;SDS011;20158;51.436;-2.742;2022-07-29T07:26:03;16.85;;;3.10;;
33862;SDS011;20158;51.436;-2.742;2022-07-29T07:28:31;7.82;;;2.10;;
33862;SDS011;20158;51.436;-2.742;2022-07-29T07:30:56;4.55;;;2.20;;
33862;SDS011;20158;51.436;-2.742;2022-07-29T07:33:22;5.90;;;2.08;;
33862;SDS011;20158;51.436;-2.742;2022-07-29T07:35:48;3.42;;;2.17;;
33862;SDS011;20158;51.436;-2.742;2022-07-29T07:38:14;3.83;;;1.90;;
33862;SDS011;20158;51.436;-2.742;2022-07-29T07:40:40;6.40;;;2.30;;
33862;SDS011;20158;51.436;-2.742;2022-07-29T07:43:06;4.72;;;2.03;;
33862;SDS011;20158;51.436;-2.742;2022-07-29T07:45:32;7.15;;;2.40;;
33862;SDS011;20158;51.436;-2.742;2022-07-29T07:47:59;5.15;;;1.98;;
33862;SDS011;20158;51.436;-2.742;2022-07-29T07:50:25;5.57;;;1.90;;
33862;SDS011;20158;51.436;-2.742;2022-07-29T07:52:52;5.47;;;3.35;;
33862;SDS011;20158;51.436;-2.742;2022-07-29T07:55:22;5.15;;;1.83;;
33862;SDS011;20158;51.436;-2.742;2022-07-29T07:57:49;9.43;;;2.83;;
33862;SDS011;20158;51.436;-2.742;2022-07-29T08:00:15;5.07;;;2.83;;
33862;SDS011;20158;51.436;-2.742;2022-07-29T08:02:42;7.82;;;2.47;;
33862;SDS011;20158;51.436;-2.742;2022-07-29T08:05:10;4.07;;;2.03;;
33862;SDS011;20158;51.436;-2.742;2022-07-29T08:07:38;3.92;;;1.95;;
33862;SDS011;20158;51.436;-2.742;2022-07-29T08:10:05;5.93;;;2.08;;
33862;SDS011;20158;51.436;-2.742;2022-07-29T08:12:31;6.93;;;1.70;;
33862;SDS011;20158;51.436;-2.742;2022-07-29T08:14:57;6.63;;;1.85;;
33862;SDS011;20158;51.436;-2.742;2022-07-29T08:17:23;3.63;;;1.70;;
33862;SDS011;20158;51.436;-2.742;2022-07-29T08:19:49;5.57;;;1.75;;
33862;SDS011;20158;51.436;-2.742;2022-07-29T08:22:15;4.60;;;1.65;;
33862;SDS011;20158;51.436;-2.742;2022-07-29T08:24:40;5.78;;;2.20;;
33862;SDS011;20158;51.436;-2.742;2022-07-29T08:27:12;6.47;;;2.13;;
33862;SDS011;20158;51.436;-2.742;2022-07-29T08:29:39;4.70;;;1.60;;
33862;SDS011;20158;51.436;-2.742;2022-07-29T08:32:05;5.93;;;1.95;;
33862;SDS011;20158;51.436;-2.742;2022-07-29T08:34:31;3.60;;;1.40;;
33862;SDS011;20158;51.436;-2.742;2022-07-29T08:36:57;3.38;;;1.30;;
33862;SDS011;20158;51.436;-2.742;2022-07-29T08:39:23;3.35;;;1.60;;
33862;SDS011;20158;51.436;-2.742;2022-07-29T08:41:50;5.47;;;2.10;;
33862;SDS011;20158;51.436;-2.742;2022-07-29T08:44:17;3.70;;;1.50;;
33862;SDS011;20158;51.436;-2.742;2022-07-29T08:46:44;8.77;;;2.03;;
33862;SDS011;20158;51.436;-2.742;2022-07-29T08:49:10;3.47;;;1.70;;
33862;SDS011;20158;51.436;-2.742;2022-07-29T08:51:38;4.93;;;2.03;;
33862;SDS011;20158;51.436;-2.742;2022-07-29T08:54:05;6.47;;;1.60;;
33862;SDS011;20158;51.436;-2.742;2022-07-29T08:56:33;5.25;;;1.83;;
33862;SDS011;20158;51.436;-2.742;2022-07-29T08:58:59;5.47;;;2.05;;
33862;SDS011;20158;51.436;-2.742;2022-07-29T09:01:29;7.82;;;2.00;;
33862;SDS011;20158;51.436;-2.742;2022-07-29T09:03:59;4.78;;;1.85;;
33862;SDS011;20158;51.436;-2.742;2022-07-29T09:06:28;5.10;;;2.13;;
33862;SDS011;20158;51.436;-2.742;2022-07-29T09:08:59;9.23;;;2.33;;
33862;SDS011;20158;51.436;-2.742;2022-07-29T09:11:26;2.33;;;1.63;;
33862;SDS011;20158;51.436;-2.742;2022-07-29T09:13:53;7.15;;;1.80;;
33862;SDS011;20158;51.436;-2.742;2022-07-29T09:16:19;4.15;;;2.10;;
33862;SDS011;20158;51.436;-2.742;2022-07-29T09:18:45;6.00;;;1.98;;
33862;SDS011;20158;51.436;-2.742;2022-07-29T09:21:12;3.97;;;1.45;;
33862;SDS011;20158;51.436;-2.742;2022-07-29T09:24:02;6.53;;;1.90;;
33862;SDS011;20158;51.436;-2.742;2022-07-29T09:26:34;7.43;;;1.77;;
33862;SDS011;20158;51.436;-2.742;2022-07-29T09:29:08;2.28;;;1.50;;
33862;SDS011;20158;51.436;-2.742;2022-07-29T09:31:40;2.35;;;1.85;;
33862;SDS011;20158;51.436;-2.742;2022-07-29T09:34:10;4.50;;;2.10;;
33862;SDS011;20158;51.436;-2.742;2022-07-29T09:36:44;4.95;;;1.77;;
33862;SDS011;20158;51.436;-2.742;2022-07-29T09:39:14;3.78;;;2.15;;
33862;SDS011;20158;51.436;-2.742;2022-07-29T09:41:53;4.28;;;2.17;;
33862;SDS011;20158;51.436;-2.742;2022-07-29T09:44:20;10.82;;;2.10;;
33862;SDS011;20158;51.436;-2.742;2022-07-29T09:46:57;2.60;;;1.83;;
33862;SDS011;20158;51.436;-2.742;2022-07-29T09:49:34;8.38;;;1.90;;
33862;SDS011;20158;51.436;-2.742;2022-07-29T09:52:15;5.70;;;1.50;;
33862;SDS011;20158;51.436;-2.742;2022-07-29T09:54:41;6.93;;;2.55;;
33862;SDS011;20158;51.436;-2.742;2022-07-29T09:57:08;9.20;;;1.90;;
33862;SDS011;20158;51.436;-2.742;2022-07-29T09:59:55;3.72;;;2.03;;
33862;SDS011;20158;51.436;-2.742;2022-07-29T10:02:37;4.20;;;1.90;;
33862;SDS011;20158;51.436;-2.742;2022-07-29T10:05:16;7.00;;;2.05;;
33862;SDS011;20158;51.436;-2.742;2022-07-29T10:07:56;3.58;;;1.83;;
33862;SDS011;20158;51.436;-2.742;2022-07-29T10:10:24;6.05;;;1.70;;
33862;SDS011;20158;51.436;-2.742;2022-07-29T10:15:24;6.43;;;1.88;;
33862;SDS011;20158;51.436;-2.742;2022-07-29T10:17:55;4.90;;;1.77;;
33862;SDS011;20158;51.436;-2.742;2022-07-29T10:20:22;4.00;;;1.73;;
33862;SDS011;20158;51.436;-2.742;2022-07-29T10:22:49;3.42;;;1.33;;
33862;SDS011;20158;51.436;-2.742;2022-07-29T10:25:16;4.07;;;1.88;;
33862;SDS011;20158;51.436;-2.742;2022-07-29T10:27:43;3.40;;;1.65;;
33862;SDS011;20158;51.436;-2.742;2022-07-29T10:30:11;3.50;;;1.55;;
33862;SDS011;20158;51.436;-2.742;2022-07-29T10:43:54;8.75;;;1.85;;
33862;SDS011;20158;51.436;-2.742;2022-07-29T10:46:27;14.25;;;1.75;;
33862;SDS011;20158;51.436;-2.742;2022-07-29T10:49:11;8.10;;;2.05;;
33862;SDS011;20158;51.436;-2.742;2022-07-29T10:57:25;3.15;;;1.75;;
33862;SDS011;20158;51.436;-2.742;2022-07-29T11:07:36;4.10;;;1.42;;
33862;SDS011;20158;51.436;-2.742;2022-07-29T11:10:19;5.47;;;1.42;;
33862;SDS011;20158;51.436;-2.742;2022-07-29T11:12:46;4.85;;;1.48;;
33862;SDS011;20158;51.436;-2.742;2022-07-29T11:15:13;4.43;;;1.67;;
33862;SDS011;20158;51.436;-2.742;2022-07-29T11:23:19;7.07;;;1.77;;
33862;SDS011;20158;51.436;-2.742;2022-07-29T11:29:24;4.45;;;1.60;;
33862;SDS011;20158;51.436;-2.742;2022-07-29T11:31:41;5.50;;;1.95;;
33862;SDS011;20158;51.436;-2.742;2022-07-29T11:39:37;3.60;;;1.90;;
33862;SDS011;20158;51.436;-2.742;2022-07-29T11:44:56;3.00;;;1.25;;
33862;SDS011;20158;51.436;-2.742;2022-07-29T11:47:23;4.47;;;1.38;;
33862;SDS011;20158;51.436;-2.742;2022-07-29T11:49:50;8.55;;;2.03;;
33862;SDS011;20158;51.436;-2.742;2022-07-29T11:52:17;5.93;;;1.50;;
33862;SDS011;20158;51.436;-2.742;2022-07-29T11:54:43;5.40;;;1.70;;
33862;SDS011;20158;51.436;-2.742;2022-07-29T11:57:12;3.63;;;1.65;;
33862;SDS011;20158;51.436;-2.742;2022-07-29T11:59:40;4.50;;;1.80;;
33862;SDS011;20158;51.436;-2.742;2022-07-29T12:02:09;4.13;;;2.20;;
33862;SDS011;20158;51.436;-2.742;2022-07-29T12:04:57;6.43;;;1.75;;
33862;SDS011;20158;51.436;-2.742;2022-07-29T12:07:30;2.65;;;1.73;;
33862;SDS011;20158;51.436;-2.742;2022-07-29T12:09:57;6.63;;;1.45;;
33862;SDS011;20158;51.436;-2.742;2022-07-29T12:12:23;3.38;;;1.30;;
33862;SDS011;20158;51.436;-2.742;2022-07-29T12:14:49;3.30;;;1.20;;
33862;SDS011;20158;51.436;-2.742;2022-07-29T12:19:54;5.50;;;1.10;;
33862;SDS011;20158;51.436;-2.742;2022-07-29T12:22:27;4.38;;;1.00;;
33862;SDS011;20158;51.436;-2.742;2022-07-29T12:24:55;2.67;;;1.00;;
33862;SDS011;20158;51.436;-2.742;2022-07-29T12:27:21;3.38;;;1.30;;
33862;SDS011;20158;51.436;-2.742;2022-07-29T12:32:30;3.85;;;1.10;;
33862;SDS011;20158;51.436;-2.742;2022-07-29T12:34:58;6.93;;;1.50;;
33862;SDS011;20158;51.436;-2.742;2022-07-29T12:37:24;1.67;;;1.13;;
33862;SDS011;20158;51.436;-2.742;2022-07-29T12:39:50;4.72;;;1.48;;
33862;SDS011;20158;51.436;-2.742;2022-07-29T12:42:16;3.95;;;1.58;;
33862;SDS011;20158;51.436;-2.742;2022-07-29T12:44:52;1.73;;;0.95;;
33862;SDS011;20158;51.436;-2.742;2022-07-29T12:47:18;7.93;;;2.10;;
33862;SDS011;20158;51.436;-2.742;2022-07-29T12:49:45;3.50;;;1.58;;
33862;SDS011;20158;51.436;-2.742;2022-07-29T12:54:54;2.08;;;1.02;;
33862;SDS011;20158;51.436;-2.742;2022-07-29T12:57:20;2.95;;;1.10;;
33862;SDS011;20158;51.436;-2.742;2022-07-29T13:02:35;2.05;;;1.30;;
33862;SDS011;20158;51.436;-2.742;2022-07-29T13:05:06;4.88;;;1.50;;
33862;SDS011;20158;51.436;-2.742;2022-07-29T13:07:38;2.50;;;1.33;;
33862;SDS011;20158;51.436;-2.742;2022-07-29T13:13:01;2.65;;;1.35;;
33862;SDS011;20158;51.436;-2.742;2022-07-29T13:15:28;1.80;;;1.38;;
33862;SDS011;20158;51.436;-2.742;2022-07-29T13:17:54;4.13;;;1.58;;
33862;SDS011;20158;51.436;-2.742;2022-07-29T13:20:23;2.53;;;1.58;;
33862;SDS011;20158;51.436;-2.742;2022-07-29T13:22:50;6.93;;;2.00;;
33862;SDS011;20158;51.436;-2.742;2022-07-29T13:25:23;5.10;;;1.65;;
33862;SDS011;20158;51.436;-2.742;2022-07-29T13:27:50;4.65;;;2.13;;
33862;SDS011;20158;51.436;-2.742;2022-07-29T13:30:16;3.20;;;1.85;;
33862;SDS011;20158;51.436;-2.742;2022-07-29T13:32:42;3.45;;;2.00;;
33862;SDS011;20158;51.436;-2.742;2022-07-29T13:35:08;5.07;;;1.90;;
33862;SDS011;20158;51.436;-2.742;2022-07-29T13:37:35;8.82;;;2.30;;
33862;SDS011;20158;51.436;-2.742;2022-07-29T13:40:03;9.10;;;2.13;;
33862;SDS011;20158;51.436;-2.742;2022-07-29T13:42:34;3.78;;;1.50;;
33862;SDS011;20158;51.436;-2.742;2022-07-29T13:45:00;5.68;;;1.60;;
33862;SDS011;20158;51.436;-2.742;2022-07-29T13:47:27;6.25;;;1.60;;
33862;SDS011;20158;51.436;-2.742;2022-07-29T13:49:54;7.28;;;1.50;;
33862;SDS011;20158;51.436;-2.742;2022-07-29T13:52:20;13.88;;;2.45;;
33862;SDS011;20158;51.436;-2.742;2022-07-29T13:54:46;9.88;;;1.58;;
33862;SDS011;20158;51.436;-2.742;2022-07-29T13:57:12;3.53;;;1.75;;
33862;SDS011;20158;51.436;-2.742;2022-07-29T13:59:42;3.75;;;1.75;;
33862;SDS011;20158;51.436;-2.742;2022-07-29T14:02:08;2.03;;;1.38;;
33862;SDS011;20158;51.436;-2.742;2022-07-29T14:04:36;4.57;;;1.90;;
33862;SDS011;20158;51.436;-2.742;2022-07-29T14:07:02;4.38;;;1.45;;
33862;SDS011;20158;51.436;-2.742;2022-07-29T14:09:29;2.70;;;1.67;;
33862;SDS011;20158;51.436;-2.742;2022-07-29T14:11:55;3.22;;;2.08;;
33862;SDS011;20158;51.436;-2.742;2022-07-29T14:14:21;2.78;;;1.50;;
33862;SDS011;20158;51.436;-2.742;2022-07-29T14:16:47;3.28;;;1.83;;
33862;SDS011;20158;51.436;-2.742;2022-07-29T14:19:13;2.22;;;1.25;;
33862;SDS011;20158;51.436;-2.742;2022-07-29T14:21:39;5.22;;;1.60;;
33862;SDS011;20158;51.436;-2.742;2022-07-29T14:24:05;3.28;;;1.58;;
33862;SDS011;20158;51.436;-2.742;2022-07-29T14:26:31;3.03;;;1.77;;
33862;SDS011;20158;51.436;-2.742;2022-07-29T14:28:57;5.45;;;1.63;;
33862;SDS011;20158;51.436;-2.742;2022-07-29T14:31:23;5.43;;;1.75;;
33862;SDS011;20158;51.436;-2.742;2022-07-29T14:33:49;5.10;;;1.70;;
33862;SDS011;20158;51.436;-2.742;2022-07-29T14:36:15;1.98;;;1.48;;
33862;SDS011;20158;51.436;-2.742;2022-07-29T14:38:41;4.45;;;1.40;;
33862;SDS011;20158;51.436;-2.742;2022-07-29T14:41:07;3.17;;;2.17;;
33862;SDS011;20158;51.436;-2.742;2022-07-29T14:43:34;3.58;;;1.45;;
33862;SDS011;20158;51.436;-2.742;2022-07-29T14:46:00;3.20;;;1.30;;
33862;SDS011;20158;51.436;-2.742;2022-07-29T14:48:27;4.00;;;1.83;;
33862;SDS011;20158;51.436;-2.742;2022-07-29T14:50:53;4.50;;;1.42;;
33862;SDS011;20158;51.436;-2.742;2022-07-29T14:53:20;3.22;;;1.60;;
33862;SDS011;20158;51.436;-2.742;2022-07-29T14:55:45;2.55;;;1.65;;
33862;SDS011;20158;51.436;-2.742;2022-07-29T14:58:11;2.95;;;1.52;;
33862;SDS011;20158;51.436;-2.742;2022-07-29T15:00:37;4.97;;;1.52;;
33862;SDS011;20158;51.436;-2.742;2022-07-29T15:03:03;2.83;;;1.27;;
33862;SDS011;20158;51.436;-2.742;2022-07-29T15:05:30;2.72;;;1.52;;
33862;SDS011;20158;51.436;-2.742;2022-07-29T15:07:57;4.75;;;1.50;;
33862;SDS011;20158;51.436;-2.742;2022-07-29T15:10:24;3.03;;;1.42;;
33862;SDS011;20158;51.436;-2.742;2022-07-29T15:12:52;4.35;;;1.70;;
33862;SDS011;20158;51.436;-2.742;2022-07-29T15:15:18;4.38;;;1.95;;
33862;SDS011;20158;51.436;-2.742;2022-07-29T15:17:44;4.43;;;1.77;;
33862;SDS011;20158;51.436;-2.742;2022-07-29T15:20:10;2.65;;;1.60;;
33862;SDS011;20158;51.436;-2.742;2022-07-29T15:22:37;1.88;;;1.58;;
33862;SDS011;20158;51.436;-2.742;2022-07-29T15:25:04;3.45;;;1.25;;
33862;SDS011;20158;51.436;-2.742;2022-07-29T15:27:30;2.85;;;1.27;;
33862;SDS011;20158;51.436;-2.742;2022-07-29T15:29:56;4.50;;;1.48;;
33862;SDS011;20158;51.436;-2.742;2022-07-29T15:32:22;2.22;;;1.38;;
33862;SDS011;20158;51.436;-2.742;2022-07-29T15:34:51;5.30;;;1.17;;
33862;SDS011;20158;51.436;-2.742;2022-07-29T15:37:17;3.15;;;1.10;;
33862;SDS011;20158;51.436;-2.742;2022-07-29T15:39:42;3.28;;;1.05;;
33862;SDS011;20158;51.436;-2.742;2022-07-29T15:42:08;2.33;;;1.50;;
33862;SDS011;20158;51.436;-2.742;2022-07-29T15:44:34;2.92;;;1.48;;
33862;SDS011;20158;51.436;-2.742;2022-07-29T15:47:00;3.78;;;1.50;;
33862;SDS011;20158;51.436;-2.742;2022-07-29T15:49:30;2.90;;;1.23;;
33862;SDS011;20158;51.436;-2.742;2022-07-29T15:51:59;2.92;;;1.15;;
33862;SDS011;20158;51.436;-2.742;2022-07-29T15:54:28;1.73;;;1.10;;